sensor_id;sensor_type;location;lat;lon;timestamp;P1;durP1;ratioP1;P2;durP2;ratioP2
51943;SDS011;37969;53.132;6.370;2022-09-09T00:01:49;24.33;;;16.17;;
51943;SDS011;37969;53.132;6.370;2022-09-09T00:04:20;25.35;;;15.65;;
51943;SDS011;37969;53.132;6.370;2022-09-09T00:06:53;22.23;;;13.82;;
51943;SDS011;37969;53.132;6.370;2022-09-09T00:09:21;17.60;;;13.82;;
51943;SDS011;37969;53.132;6.370;2022-09-09T00:11:54;21.73;;;15.20;;
51943;SDS011;37969;53.132;6.370;2022-09-09T00:14:34;22.48;;;15.07;;
51943;SDS011;37969;53.132;6.370;2022-09-09T00:17:04;26.05;;;14.93;;
51943;SDS011;37969;53.132;6.370;2022-09-09T00:22:06;19.77;;;13.85;;
51943;SDS011;37969;53.132;6.370;2022-09-09T00:24:38;16.63;;;12.68;;
51943;SDS011;37969;53.132;6.370;2022-09-09T00:27:08;22.45;;;13.35;;
51943;SDS011;37969;53.132;6.370;2022-09-09T00:32:09;23.85;;;14.23;;
51943;SDS011;37969;53.132;6.370;2022-09-09T00:34:37;19.63;;;13.20;;
51943;SDS011;37969;53.132;6.370;2022-09-09T00:37:05;20.95;;;14.13;;
51943;SDS011;37969;53.132;6.370;2022-09-09T00:39:34;20.67;;;12.60;;
51943;SDS011;37969;53.132;6.370;2022-09-09T00:42:11;28.33;;;13.63;;
51943;SDS011;37969;53.132;6.370;2022-09-09T00:44:39;19.52;;;12.95;;
51943;SDS011;37969;53.132;6.370;2022-09-09T00:52:26;20.50;;;12.93;;
51943;SDS011;37969;53.132;6.370;2022-09-09T00:57:26;21.55;;;13.05;;
51943;SDS011;37969;53.132;6.370;2022-09-09T01:04:53;20.65;;;12.63;;
51943;SDS011;37969;53.132;6.370;2022-09-09T01:07:20;20.13;;;12.40;;
51943;SDS011;37969;53.132;6.370;2022-09-09T01:09:59;21.10;;;11.60;;
51943;SDS011;37969;53.132;6.370;2022-09-09T01:12:40;17.25;;;12.30;;
51943;SDS011;37969;53.132;6.370;2022-09-09T01:15:10;21.58;;;11.88;;
51943;SDS011;37969;53.132;6.370;2022-09-09T01:17:52;18.70;;;11.82;;
51943;SDS011;37969;53.132;6.370;2022-09-09T01:20:23;23.02;;;11.57;;
51943;SDS011;37969;53.132;6.370;2022-09-09T01:28:22;22.38;;;11.50;;
51943;SDS011;37969;53.132;6.370;2022-09-09T01:30:51;22.80;;;11.15;;
51943;SDS011;37969;53.132;6.370;2022-09-09T01:33:17;18.20;;;11.35;;
51943;SDS011;37969;53.132;6.370;2022-09-09T01:38:11;20.90;;;12.32;;
51943;SDS011;37969;53.132;6.370;2022-09-09T01:40:37;22.77;;;13.98;;
51943;SDS011;37969;53.132;6.370;2022-09-09T01:43:04;22.90;;;12.65;;
51943;SDS011;37969;53.132;6.370;2022-09-09T01:45:31;18.85;;;13.07;;
51943;SDS011;37969;53.132;6.370;2022-09-09T01:47:58;19.20;;;12.63;;
51943;SDS011;37969;53.132;6.370;2022-09-09T01:50:25;20.52;;;13.23;;
51943;SDS011;37969;53.132;6.370;2022-09-09T01:52:52;26.17;;;13.77;;
51943;SDS011;37969;53.132;6.370;2022-09-09T01:55:21;20.35;;;13.38;;
51943;SDS011;37969;53.132;6.370;2022-09-09T01:57:54;18.02;;;14.15;;
51943;SDS011;37969;53.132;6.370;2022-09-09T02:00:22;29.20;;;13.63;;
51943;SDS011;37969;53.132;6.370;2022-09-09T02:02:52;27.80;;;14.07;;
51943;SDS011;37969;53.132;6.370;2022-09-09T02:07:58;23.55;;;15.68;;
51943;SDS011;37969;53.132;6.370;2022-09-09T02:10:29;24.52;;;14.70;;
51943;SDS011;37969;53.132;6.370;2022-09-09T02:13:04;19.75;;;14.63;;
51943;SDS011;37969;53.132;6.370;2022-09-09T02:15:34;21.08;;;14.23;;
51943;SDS011;37969;53.132;6.370;2022-09-09T02:18:01;20.23;;;13.75;;
51943;SDS011;37969;53.132;6.370;2022-09-09T02:20:31;21.20;;;15.18;;
51943;SDS011;37969;53.132;6.370;2022-09-09T02:22:58;20.48;;;14.52;;
51943;SDS011;37969;53.132;6.370;2022-09-09T02:25:26;27.48;;;15.98;;
51943;SDS011;37969;53.132;6.370;2022-09-09T02:27:53;27.48;;;15.60;;
51943;SDS011;37969;53.132;6.370;2022-09-09T02:30:19;22.25;;;16.50;;
51943;SDS011;37969;53.132;6.370;2022-09-09T02:32:46;21.75;;;14.65;;
51943;SDS011;37969;53.132;6.370;2022-09-09T02:35:14;22.17;;;15.02;;
51943;SDS011;37969;53.132;6.370;2022-09-09T02:37:42;23.70;;;16.35;;
51943;SDS011;37969;53.132;6.370;2022-09-09T02:40:09;36.20;;;16.95;;
51943;SDS011;37969;53.132;6.370;2022-09-09T02:42:43;19.15;;;15.10;;
51943;SDS011;37969;53.132;6.370;2022-09-09T02:45:11;22.00;;;15.18;;
51943;SDS011;37969;53.132;6.370;2022-09-09T02:47:48;24.77;;;17.02;;
51943;SDS011;37969;53.132;6.370;2022-09-09T02:50:22;25.43;;;18.03;;
51943;SDS011;37969;53.132;6.370;2022-09-09T02:55:40;21.25;;;16.45;;
51943;SDS011;37969;53.132;6.370;2022-09-09T02:58:08;22.05;;;16.63;;
51943;SDS011;37969;53.132;6.370;2022-09-09T03:00:36;27.00;;;16.67;;
51943;SDS011;37969;53.132;6.370;2022-09-09T03:03:03;32.00;;;17.88;;
51943;SDS011;37969;53.132;6.370;2022-09-09T03:05:30;29.25;;;17.00;;
51943;SDS011;37969;53.132;6.370;2022-09-09T03:07:56;27.77;;;16.80;;
51943;SDS011;37969;53.132;6.370;2022-09-09T03:10:23;27.10;;;16.33;;
51943;SDS011;37969;53.132;6.370;2022-09-09T03:12:49;22.98;;;16.20;;
51943;SDS011;37969;53.132;6.370;2022-09-09T03:15:15;23.50;;;15.50;;
51943;SDS011;37969;53.132;6.370;2022-09-09T03:17:42;23.55;;;15.60;;
51943;SDS011;37969;53.132;6.370;2022-09-09T03:20:08;24.75;;;15.70;;
51943;SDS011;37969;53.132;6.370;2022-09-09T03:22:34;22.05;;;15.23;;
51943;SDS011;37969;53.132;6.370;2022-09-09T03:25:01;22.88;;;15.10;;
51943;SDS011;37969;53.132;6.370;2022-09-09T03:27:28;18.30;;;15.25;;
51943;SDS011;37969;53.132;6.370;2022-09-09T03:29:54;20.23;;;14.35;;
51943;SDS011;37969;53.132;6.370;2022-09-09T03:32:21;19.00;;;14.23;;
51943;SDS011;37969;53.132;6.370;2022-09-09T03:34:47;22.05;;;13.68;;
51943;SDS011;37969;53.132;6.370;2022-09-09T03:37:15;17.15;;;12.85;;
51943;SDS011;37969;53.132;6.370;2022-09-09T03:39:42;20.55;;;13.25;;
51943;SDS011;37969;53.132;6.370;2022-09-09T03:42:09;20.23;;;12.90;;
51943;SDS011;37969;53.132;6.370;2022-09-09T03:44:35;27.77;;;13.98;;
51943;SDS011;37969;53.132;6.370;2022-09-09T03:47:02;23.35;;;14.02;;
51943;SDS011;37969;53.132;6.370;2022-09-09T03:49:28;23.88;;;12.30;;
51943;SDS011;37969;53.132;6.370;2022-09-09T03:51:55;21.70;;;13.48;;
51943;SDS011;37969;53.132;6.370;2022-09-09T03:54:23;18.67;;;12.80;;
51943;SDS011;37969;53.132;6.370;2022-09-09T03:56:49;17.50;;;12.82;;
51943;SDS011;37969;53.132;6.370;2022-09-09T03:59:15;21.35;;;13.00;;
51943;SDS011;37969;53.132;6.370;2022-09-09T04:01:41;20.20;;;11.85;;
51943;SDS011;37969;53.132;6.370;2022-09-09T04:04:07;15.23;;;10.43;;
51943;SDS011;37969;53.132;6.370;2022-09-09T04:06:34;17.95;;;11.15;;
51943;SDS011;37969;53.132;6.370;2022-09-09T04:09:00;21.42;;;11.35;;
51943;SDS011;37969;53.132;6.370;2022-09-09T04:11:28;17.65;;;10.80;;
51943;SDS011;37969;53.132;6.370;2022-09-09T04:13:54;17.27;;;10.80;;
51943;SDS011;37969;53.132;6.370;2022-09-09T04:16:21;14.68;;;10.70;;
51943;SDS011;37969;53.132;6.370;2022-09-09T04:18:47;17.88;;;11.02;;
51943;SDS011;37969;53.132;6.370;2022-09-09T04:21:13;17.50;;;10.32;;
51943;SDS011;37969;53.132;6.370;2022-09-09T04:23:41;18.20;;;11.82;;
51943;SDS011;37969;53.132;6.370;2022-09-09T04:26:07;19.10;;;10.80;;
51943;SDS011;37969;53.132;6.370;2022-09-09T04:28:34;21.83;;;11.48;;
51943;SDS011;37969;53.132;6.370;2022-09-09T04:31:07;16.17;;;11.15;;
51943;SDS011;37969;53.132;6.370;2022-09-09T04:33:34;18.38;;;10.70;;
51943;SDS011;37969;53.132;6.370;2022-09-09T04:36:01;15.18;;;11.13;;
51943;SDS011;37969;53.132;6.370;2022-09-09T04:38:27;14.27;;;10.50;;
51943;SDS011;37969;53.132;6.370;2022-09-09T04:40:53;17.50;;;10.77;;
51943;SDS011;37969;53.132;6.370;2022-09-09T04:43:20;13.25;;;10.52;;
51943;SDS011;37969;53.132;6.370;2022-09-09T04:45:46;16.92;;;11.60;;
51943;SDS011;37969;53.132;6.370;2022-09-09T04:48:13;16.27;;;11.18;;
51943;SDS011;37969;53.132;6.370;2022-09-09T04:50:39;18.20;;;11.65;;
51943;SDS011;37969;53.132;6.370;2022-09-09T04:53:06;17.25;;;12.07;;
51943;SDS011;37969;53.132;6.370;2022-09-09T04:55:33;14.48;;;11.13;;
51943;SDS011;37969;53.132;6.370;2022-09-09T05:00:46;21.05;;;12.27;;
51943;SDS011;37969;53.132;6.370;2022-09-09T05:03:13;19.33;;;12.32;;
51943;SDS011;37969;53.132;6.370;2022-09-09T05:05:39;16.98;;;12.13;;
51943;SDS011;37969;53.132;6.370;2022-09-09T05:08:06;19.73;;;12.98;;
51943;SDS011;37969;53.132;6.370;2022-09-09T05:10:33;18.65;;;12.75;;
51943;SDS011;37969;53.132;6.370;2022-09-09T05:13:00;20.23;;;12.73;;
51943;SDS011;37969;53.132;6.370;2022-09-09T05:15:27;20.33;;;13.93;;
51943;SDS011;37969;53.132;6.370;2022-09-09T05:17:59;20.92;;;13.77;;
51943;SDS011;37969;53.132;6.370;2022-09-09T05:20:27;21.38;;;13.80;;
51943;SDS011;37969;53.132;6.370;2022-09-09T05:22:54;18.25;;;14.45;;
51943;SDS011;37969;53.132;6.370;2022-09-09T05:25:20;20.38;;;13.65;;
51943;SDS011;37969;53.132;6.370;2022-09-09T05:27:47;22.55;;;13.82;;
51943;SDS011;37969;53.132;6.370;2022-09-09T05:30:14;17.83;;;13.43;;
51943;SDS011;37969;53.132;6.370;2022-09-09T05:32:41;19.88;;;14.18;;
51943;SDS011;37969;53.132;6.370;2022-09-09T05:35:07;22.98;;;15.20;;
51943;SDS011;37969;53.132;6.370;2022-09-09T05:37:33;21.70;;;14.63;;
51943;SDS011;37969;53.132;6.370;2022-09-09T05:40:00;20.25;;;14.75;;
51943;SDS011;37969;53.132;6.370;2022-09-09T05:42:29;24.30;;;14.93;;
51943;SDS011;37969;53.132;6.370;2022-09-09T05:44:55;27.75;;;16.48;;
51943;SDS011;37969;53.132;6.370;2022-09-09T05:47:22;21.95;;;15.90;;
51943;SDS011;37969;53.132;6.370;2022-09-09T05:49:48;21.75;;;14.75;;
51943;SDS011;37969;53.132;6.370;2022-09-09T05:52:14;23.15;;;16.63;;
51943;SDS011;37969;53.132;6.370;2022-09-09T05:54:40;20.83;;;15.75;;
51943;SDS011;37969;53.132;6.370;2022-09-09T05:57:08;20.67;;;14.63;;
51943;SDS011;37969;53.132;6.370;2022-09-09T05:59:34;21.35;;;16.13;;
51943;SDS011;37969;53.132;6.370;2022-09-09T06:02:00;20.77;;;15.25;;
51943;SDS011;37969;53.132;6.370;2022-09-09T06:04:26;24.20;;;16.15;;
51943;SDS011;37969;53.132;6.370;2022-09-09T06:06:52;25.33;;;15.95;;
51943;SDS011;37969;53.132;6.370;2022-09-09T06:09:19;27.95;;;16.00;;
51943;SDS011;37969;53.132;6.370;2022-09-09T06:11:45;20.25;;;15.65;;
51943;SDS011;37969;53.132;6.370;2022-09-09T06:14:11;19.83;;;14.52;;
51943;SDS011;37969;53.132;6.370;2022-09-09T06:16:37;22.35;;;15.23;;
51943;SDS011;37969;53.132;6.370;2022-09-09T06:19:03;21.75;;;15.10;;
51943;SDS011;37969;53.132;6.370;2022-09-09T06:21:30;20.50;;;14.98;;
51943;SDS011;37969;53.132;6.370;2022-09-09T06:23:57;19.83;;;13.25;;
51943;SDS011;37969;53.132;6.370;2022-09-09T06:26:25;15.57;;;13.13;;
51943;SDS011;37969;53.132;6.370;2022-09-09T06:28:52;16.65;;;13.00;;
51943;SDS011;37969;53.132;6.370;2022-09-09T06:31:20;18.67;;;13.10;;
51943;SDS011;37969;53.132;6.370;2022-09-09T06:33:47;16.17;;;11.20;;
51943;SDS011;37969;53.132;6.370;2022-09-09T06:36:18;16.02;;;12.23;;
51943;SDS011;37969;53.132;6.370;2022-09-09T06:38:45;16.33;;;10.95;;
51943;SDS011;37969;53.132;6.370;2022-09-09T06:41:11;14.60;;;12.07;;
51943;SDS011;37969;53.132;6.370;2022-09-09T06:43:38;14.32;;;10.95;;
51943;SDS011;37969;53.132;6.370;2022-09-09T06:46:05;14.55;;;11.50;;
51943;SDS011;37969;53.132;6.370;2022-09-09T06:48:33;14.23;;;11.77;;
51943;SDS011;37969;53.132;6.370;2022-09-09T06:51:00;13.95;;;11.45;;
51943;SDS011;37969;53.132;6.370;2022-09-09T06:53:27;15.40;;;12.07;;
51943;SDS011;37969;53.132;6.370;2022-09-09T06:55:53;14.27;;;11.43;;
51943;SDS011;37969;53.132;6.370;2022-09-09T06:58:20;14.98;;;11.30;;
51943;SDS011;37969;53.132;6.370;2022-09-09T07:00:47;16.88;;;12.15;;
51943;SDS011;37969;53.132;6.370;2022-09-09T07:03:14;12.43;;;11.05;;
51943;SDS011;37969;53.132;6.370;2022-09-09T07:05:40;12.77;;;10.15;;
51943;SDS011;37969;53.132;6.370;2022-09-09T07:08:07;13.45;;;10.73;;
51943;SDS011;37969;53.132;6.370;2022-09-09T07:10:33;13.57;;;10.40;;
51943;SDS011;37969;53.132;6.370;2022-09-09T07:13:00;11.23;;;9.90;;
51943;SDS011;37969;53.132;6.370;2022-09-09T07:15:27;13.65;;;11.77;;
51943;SDS011;37969;53.132;6.370;2022-09-09T07:17:53;13.70;;;10.75;;
51943;SDS011;37969;53.132;6.370;2022-09-09T07:20:19;13.32;;;10.18;;
51943;SDS011;37969;53.132;6.370;2022-09-09T07:22:45;11.57;;;9.48;;
51943;SDS011;37969;53.132;6.370;2022-09-09T07:25:11;13.52;;;10.38;;
51943;SDS011;37969;53.132;6.370;2022-09-09T07:27:39;15.55;;;9.63;;
51943;SDS011;37969;53.132;6.370;2022-09-09T07:30:05;13.00;;;10.27;;
51943;SDS011;37969;53.132;6.370;2022-09-09T07:32:32;12.48;;;10.05;;
51943;SDS011;37969;53.132;6.370;2022-09-09T07:34:58;12.27;;;9.07;;
51943;SDS011;37969;53.132;6.370;2022-09-09T07:37:25;11.63;;;9.70;;
51943;SDS011;37969;53.132;6.370;2022-09-09T07:39:51;12.45;;;9.38;;
51943;SDS011;37969;53.132;6.370;2022-09-09T07:42:17;12.77;;;8.68;;
51943;SDS011;37969;53.132;6.370;2022-09-09T07:44:44;10.70;;;7.60;;
51943;SDS011;37969;53.132;6.370;2022-09-09T07:47:10;12.82;;;9.32;;
51943;SDS011;37969;53.132;6.370;2022-09-09T07:49:36;12.80;;;9.13;;
51943;SDS011;37969;53.132;6.370;2022-09-09T07:52:02;12.50;;;8.40;;
51943;SDS011;37969;53.132;6.370;2022-09-09T07:54:28;11.55;;;8.55;;
51943;SDS011;37969;53.132;6.370;2022-09-09T07:56:55;9.00;;;8.10;;
51943;SDS011;37969;53.132;6.370;2022-09-09T07:59:21;13.40;;;8.45;;
51943;SDS011;37969;53.132;6.370;2022-09-09T08:01:48;12.82;;;8.43;;
51943;SDS011;37969;53.132;6.370;2022-09-09T08:04:19;12.65;;;8.02;;
51943;SDS011;37969;53.132;6.370;2022-09-09T08:06:47;16.73;;;8.85;;
51943;SDS011;37969;53.132;6.370;2022-09-09T08:09:14;9.30;;;8.20;;
51943;SDS011;37969;53.132;6.370;2022-09-09T08:11:41;13.27;;;8.10;;
51943;SDS011;37969;53.132;6.370;2022-09-09T08:14:08;12.60;;;7.63;;
51943;SDS011;37969;53.132;6.370;2022-09-09T08:16:36;9.57;;;7.20;;
51943;SDS011;37969;53.132;6.370;2022-09-09T08:19:02;8.43;;;7.25;;
51943;SDS011;37969;53.132;6.370;2022-09-09T08:21:29;16.25;;;7.50;;
51943;SDS011;37969;53.132;6.370;2022-09-09T08:23:57;13.80;;;6.97;;
51943;SDS011;37969;53.132;6.370;2022-09-09T08:26:24;10.73;;;7.00;;
51943;SDS011;37969;53.132;6.370;2022-09-09T08:28:53;11.40;;;6.93;;
51943;SDS011;37969;53.132;6.370;2022-09-09T08:31:22;8.40;;;6.15;;
51943;SDS011;37969;53.132;6.370;2022-09-09T08:33:48;10.82;;;6.53;;
51943;SDS011;37969;53.132;6.370;2022-09-09T08:36:15;10.55;;;6.50;;
51943;SDS011;37969;53.132;6.370;2022-09-09T08:38:42;11.93;;;6.57;;
51943;SDS011;37969;53.132;6.370;2022-09-09T08:43:50;14.77;;;5.65;;
51943;SDS011;37969;53.132;6.370;2022-09-09T08:46:26;9.85;;;5.57;;
51943;SDS011;37969;53.132;6.370;2022-09-09T08:51:27;10.60;;;5.78;;
51943;SDS011;37969;53.132;6.370;2022-09-09T08:53:57;10.05;;;5.78;;
51943;SDS011;37969;53.132;6.370;2022-09-09T08:56:25;9.88;;;5.90;;
51943;SDS011;37969;53.132;6.370;2022-09-09T08:58:54;10.90;;;5.70;;
51943;SDS011;37969;53.132;6.370;2022-09-09T09:03:55;11.25;;;6.22;;
51943;SDS011;37969;53.132;6.370;2022-09-09T09:06:29;9.07;;;5.10;;
51943;SDS011;37969;53.132;6.370;2022-09-09T09:09:02;10.40;;;5.32;;
51943;SDS011;37969;53.132;6.370;2022-09-09T09:13:59;9.73;;;4.25;;
51943;SDS011;37969;53.132;6.370;2022-09-09T09:16:30;8.82;;;4.55;;
51943;SDS011;37969;53.132;6.370;2022-09-09T09:18:58;8.23;;;4.35;;
51943;SDS011;37969;53.132;6.370;2022-09-09T09:23:54;13.85;;;5.03;;
51943;SDS011;37969;53.132;6.370;2022-09-09T09:26:23;11.63;;;3.88;;
51943;SDS011;37969;53.132;6.370;2022-09-09T09:28:52;9.98;;;3.92;;
51943;SDS011;37969;53.132;6.370;2022-09-09T09:31:22;12.50;;;3.60;;
51943;SDS011;37969;53.132;6.370;2022-09-09T09:33:50;13.73;;;4.00;;
51943;SDS011;37969;53.132;6.370;2022-09-09T09:36:18;8.70;;;3.35;;
51943;SDS011;37969;53.132;6.370;2022-09-09T09:38:52;9.80;;;3.88;;
51943;SDS011;37969;53.132;6.370;2022-09-09T09:41:28;11.55;;;3.80;;
51943;SDS011;37969;53.132;6.370;2022-09-09T09:43:55;14.10;;;3.92;;
51943;SDS011;37969;53.132;6.370;2022-09-09T09:46:22;10.10;;;3.42;;
51943;SDS011;37969;53.132;6.370;2022-09-09T09:48:57;11.38;;;3.40;;
51943;SDS011;37969;53.132;6.370;2022-09-09T09:51:25;8.70;;;3.13;;
51943;SDS011;37969;53.132;6.370;2022-09-09T09:53:52;8.52;;;3.20;;
51943;SDS011;37969;53.132;6.370;2022-09-09T09:56:26;13.32;;;3.65;;
51943;SDS011;37969;53.132;6.370;2022-09-09T09:58:53;12.10;;;3.50;;
51943;SDS011;37969;53.132;6.370;2022-09-09T10:01:22;13.18;;;3.65;;
51943;SDS011;37969;53.132;6.370;2022-09-09T10:03:50;10.57;;;2.80;;
51943;SDS011;37969;53.132;6.370;2022-09-09T10:06:17;10.10;;;3.10;;
51943;SDS011;37969;53.132;6.370;2022-09-09T10:08:44;16.50;;;3.55;;
51943;SDS011;37969;53.132;6.370;2022-09-09T10:14:04;8.65;;;3.33;;
51943;SDS011;37969;53.132;6.370;2022-09-09T10:21:31;11.50;;;3.90;;
51943;SDS011;37969;53.132;6.370;2022-09-09T10:24:03;12.73;;;3.63;;
51943;SDS011;37969;53.132;6.370;2022-09-09T10:29:18;10.98;;;3.47;;
51943;SDS011;37969;53.132;6.370;2022-09-09T10:34:33;11.00;;;3.28;;
51943;SDS011;37969;53.132;6.370;2022-09-09T10:37:04;12.93;;;2.70;;
51943;SDS011;37969;53.132;6.370;2022-09-09T10:39:35;12.68;;;2.88;;
51943;SDS011;37969;53.132;6.370;2022-09-09T10:42:07;10.40;;;2.28;;
51943;SDS011;37969;53.132;6.370;2022-09-09T10:47:11;7.82;;;2.42;;
51943;SDS011;37969;53.132;6.370;2022-09-09T10:49:57;9.10;;;2.75;;
51943;SDS011;37969;53.132;6.370;2022-09-09T10:52:32;12.25;;;2.30;;
51943;SDS011;37969;53.132;6.370;2022-09-09T10:55:00;7.63;;;2.40;;
51943;SDS011;37969;53.132;6.370;2022-09-09T10:57:29;10.43;;;2.35;;
51943;SDS011;37969;53.132;6.370;2022-09-09T10:59:58;9.63;;;2.27;;
51943;SDS011;37969;53.132;6.370;2022-09-09T11:02:29;8.73;;;2.65;;
51943;SDS011;37969;53.132;6.370;2022-09-09T11:04:58;13.30;;;2.42;;
51943;SDS011;37969;53.132;6.370;2022-09-09T11:07:33;8.40;;;2.72;;
51943;SDS011;37969;53.132;6.370;2022-09-09T11:10:02;8.75;;;2.17;;
51943;SDS011;37969;53.132;6.370;2022-09-09T11:12:31;7.85;;;2.30;;
51943;SDS011;37969;53.132;6.370;2022-09-09T11:15:06;5.28;;;1.98;;
51943;SDS011;37969;53.132;6.370;2022-09-09T11:17:40;7.75;;;2.20;;
51943;SDS011;37969;53.132;6.370;2022-09-09T11:20:11;7.63;;;2.15;;
51943;SDS011;37969;53.132;6.370;2022-09-09T11:22:39;10.25;;;2.15;;
51943;SDS011;37969;53.132;6.370;2022-09-09T11:25:17;9.38;;;2.30;;
51943;SDS011;37969;53.132;6.370;2022-09-09T11:27:52;8.02;;;2.20;;
51943;SDS011;37969;53.132;6.370;2022-09-09T11:30:21;7.28;;;2.05;;
51943;SDS011;37969;53.132;6.370;2022-09-09T11:35:30;8.63;;;1.77;;
51943;SDS011;37969;53.132;6.370;2022-09-09T11:40:40;9.20;;;2.22;;
51943;SDS011;37969;53.132;6.370;2022-09-09T11:45:35;11.23;;;2.70;;
51943;SDS011;37969;53.132;6.370;2022-09-09T11:48:02;12.05;;;2.80;;
51943;SDS011;37969;53.132;6.370;2022-09-09T11:50:30;7.45;;;2.50;;
51943;SDS011;37969;53.132;6.370;2022-09-09T11:53:05;8.52;;;2.72;;
51943;SDS011;37969;53.132;6.370;2022-09-09T11:55:33;9.60;;;2.47;;
51943;SDS011;37969;53.132;6.370;2022-09-09T11:58:00;7.72;;;2.30;;
51943;SDS011;37969;53.132;6.370;2022-09-09T12:03:02;8.20;;;2.17;;
51943;SDS011;37969;53.132;6.370;2022-09-09T12:05:36;7.97;;;2.30;;
51943;SDS011;37969;53.132;6.370;2022-09-09T12:08:04;14.48;;;2.47;;
51943;SDS011;37969;53.132;6.370;2022-09-09T12:10:33;7.70;;;2.20;;
51943;SDS011;37969;53.132;6.370;2022-09-09T12:15:48;9.27;;;2.00;;
51943;SDS011;37969;53.132;6.370;2022-09-09T12:18:21;7.65;;;2.80;;
51943;SDS011;37969;53.132;6.370;2022-09-09T12:20:57;6.10;;;1.90;;
51943;SDS011;37969;53.132;6.370;2022-09-09T12:23:30;9.85;;;2.00;;
51943;SDS011;37969;53.132;6.370;2022-09-09T12:28:38;7.82;;;2.10;;
51943;SDS011;37969;53.132;6.370;2022-09-09T12:31:10;10.13;;;2.13;;
51943;SDS011;37969;53.132;6.370;2022-09-09T12:33:42;8.02;;;2.45;;
51943;SDS011;37969;53.132;6.370;2022-09-09T12:36:12;9.75;;;1.90;;
51943;SDS011;37969;53.132;6.370;2022-09-09T12:38:40;9.02;;;2.03;;
51943;SDS011;37969;53.132;6.370;2022-09-09T12:41:17;7.40;;;2.30;;
51943;SDS011;37969;53.132;6.370;2022-09-09T12:43:44;6.45;;;1.98;;
51943;SDS011;37969;53.132;6.370;2022-09-09T12:46:14;11.70;;;2.00;;
51943;SDS011;37969;53.132;6.370;2022-09-09T12:48:43;8.52;;;2.35;;
51943;SDS011;37969;53.132;6.370;2022-09-09T12:51:18;7.70;;;2.00;;
51943;SDS011;37969;53.132;6.370;2022-09-09T12:53:45;6.20;;;1.92;;
51943;SDS011;37969;53.132;6.370;2022-09-09T12:56:18;8.57;;;2.10;;
51943;SDS011;37969;53.132;6.370;2022-09-09T12:58:46;7.05;;;2.30;;
51943;SDS011;37969;53.132;6.370;2022-09-09T13:01:25;9.88;;;2.28;;
51943;SDS011;37969;53.132;6.370;2022-09-09T13:03:52;4.95;;;1.60;;
51943;SDS011;37969;53.132;6.370;2022-09-09T13:06:20;10.38;;;1.70;;
51943;SDS011;37969;53.132;6.370;2022-09-09T13:08:48;8.30;;;1.67;;
51943;SDS011;37969;53.132;6.370;2022-09-09T13:11:16;5.55;;;1.70;;
51943;SDS011;37969;53.132;6.370;2022-09-09T13:13:43;8.48;;;1.70;;
51943;SDS011;37969;53.132;6.370;2022-09-09T13:16:18;9.88;;;1.65;;
51943;SDS011;37969;53.132;6.370;2022-09-09T13:18:45;5.70;;;2.10;;
51943;SDS011;37969;53.132;6.370;2022-09-09T13:21:11;7.07;;;1.63;;
51943;SDS011;37969;53.132;6.370;2022-09-09T13:23:38;7.95;;;1.80;;
51943;SDS011;37969;53.132;6.370;2022-09-09T13:26:05;6.68;;;1.60;;
51943;SDS011;37969;53.132;6.370;2022-09-09T13:28:33;7.85;;;2.00;;
51943;SDS011;37969;53.132;6.370;2022-09-09T13:31:02;6.82;;;1.80;;
51943;SDS011;37969;53.132;6.370;2022-09-09T13:33:29;5.85;;;1.77;;
51943;SDS011;37969;53.132;6.370;2022-09-09T13:35:57;5.80;;;1.80;;
51943;SDS011;37969;53.132;6.370;2022-09-09T13:38:24;6.95;;;2.00;;
51943;SDS011;37969;53.132;6.370;2022-09-09T13:40:54;18.35;;;2.33;;
51943;SDS011;37969;53.132;6.370;2022-09-09T13:43:23;14.45;;;2.50;;
51943;SDS011;37969;53.132;6.370;2022-09-09T13:45:54;8.80;;;2.28;;
51943;SDS011;37969;53.132;6.370;2022-09-09T13:48:21;6.63;;;1.65;;
51943;SDS011;37969;53.132;6.370;2022-09-09T13:50:55;7.03;;;1.88;;
51943;SDS011;37969;53.132;6.370;2022-09-09T13:53:22;8.90;;;2.13;;
51943;SDS011;37969;53.132;6.370;2022-09-09T13:55:48;6.32;;;1.52;;
51943;SDS011;37969;53.132;6.370;2022-09-09T13:58:15;7.03;;;1.65;;
51943;SDS011;37969;53.132;6.370;2022-09-09T14:00:44;6.40;;;1.80;;
51943;SDS011;37969;53.132;6.370;2022-09-09T14:03:10;6.15;;;1.60;;
51943;SDS011;37969;53.132;6.370;2022-09-09T14:05:36;4.53;;;1.35;;
51943;SDS011;37969;53.132;6.370;2022-09-09T14:08:04;7.55;;;1.50;;
51943;SDS011;37969;53.132;6.370;2022-09-09T14:10:30;5.22;;;1.70;;
51943;SDS011;37969;53.132;6.370;2022-09-09T14:12:56;6.35;;;1.30;;
51943;SDS011;37969;53.132;6.370;2022-09-09T14:15:22;3.75;;;1.13;;
51943;SDS011;37969;53.132;6.370;2022-09-09T14:17:49;2.17;;;0.88;;
51943;SDS011;37969;53.132;6.370;2022-09-09T14:20:17;3.75;;;1.02;;
51943;SDS011;37969;53.132;6.370;2022-09-09T14:22:44;3.25;;;1.27;;
51943;SDS011;37969;53.132;6.370;2022-09-09T14:25:11;6.70;;;1.58;;
51943;SDS011;37969;53.132;6.370;2022-09-09T14:27:38;8.88;;;1.92;;
51943;SDS011;37969;53.132;6.370;2022-09-09T14:30:05;8.73;;;1.92;;
51943;SDS011;37969;53.132;6.370;2022-09-09T14:32:31;7.70;;;2.35;;
51943;SDS011;37969;53.132;6.370;2022-09-09T14:34:58;5.30;;;2.10;;
51943;SDS011;37969;53.132;6.370;2022-09-09T14:37:24;5.30;;;2.45;;
51943;SDS011;37969;53.132;6.370;2022-09-09T14:39:51;5.60;;;1.80;;
51943;SDS011;37969;53.132;6.370;2022-09-09T14:42:19;7.63;;;1.95;;
51943;SDS011;37969;53.132;6.370;2022-09-09T14:44:45;9.55;;;2.17;;
51943;SDS011;37969;53.132;6.370;2022-09-09T14:47:13;8.13;;;1.83;;
51943;SDS011;37969;53.132;6.370;2022-09-09T14:49:39;5.65;;;1.40;;
51943;SDS011;37969;53.132;6.370;2022-09-09T14:52:05;3.78;;;1.40;;
51943;SDS011;37969;53.132;6.370;2022-09-09T14:54:31;5.50;;;1.52;;
51943;SDS011;37969;53.132;6.370;2022-09-09T14:56:57;4.55;;;1.20;;
51943;SDS011;37969;53.132;6.370;2022-09-09T14:59:24;3.15;;;1.23;;
51943;SDS011;37969;53.132;6.370;2022-09-09T15:01:51;4.15;;;1.30;;
51943;SDS011;37969;53.132;6.370;2022-09-09T15:04:18;5.28;;;1.13;;
51943;SDS011;37969;53.132;6.370;2022-09-09T15:06:44;4.65;;;1.67;;
51943;SDS011;37969;53.132;6.370;2022-09-09T15:09:13;2.70;;;1.08;;
51943;SDS011;37969;53.132;6.370;2022-09-09T15:11:39;3.67;;;1.20;;
51943;SDS011;37969;53.132;6.370;2022-09-09T15:14:06;2.65;;;0.93;;
51943;SDS011;37969;53.132;6.370;2022-09-09T15:16:33;5.72;;;1.13;;
51943;SDS011;37969;53.132;6.370;2022-09-09T15:18:59;4.28;;;1.13;;
51943;SDS011;37969;53.132;6.370;2022-09-09T15:21:27;4.55;;;1.10;;
51943;SDS011;37969;53.132;6.370;2022-09-09T15:23:54;4.35;;;1.20;;
51943;SDS011;37969;53.132;6.370;2022-09-09T15:26:20;3.38;;;1.13;;
51943;SDS011;37969;53.132;6.370;2022-09-09T15:28:46;4.18;;;1.35;;
51943;SDS011;37969;53.132;6.370;2022-09-09T15:31:14;3.72;;;1.42;;
51943;SDS011;37969;53.132;6.370;2022-09-09T15:33:46;5.03;;;1.50;;
51943;SDS011;37969;53.132;6.370;2022-09-09T15:38:39;3.55;;;1.20;;
51943;SDS011;37969;53.132;6.370;2022-09-09T15:41:06;3.55;;;1.30;;
51943;SDS011;37969;53.132;6.370;2022-09-09T15:43:32;4.70;;;1.50;;
51943;SDS011;37969;53.132;6.370;2022-09-09T15:45:59;5.03;;;1.50;;
51943;SDS011;37969;53.132;6.370;2022-09-09T15:48:30;4.82;;;1.55;;
51943;SDS011;37969;53.132;6.370;2022-09-09T15:51:01;4.38;;;1.35;;
51943;SDS011;37969;53.132;6.370;2022-09-09T15:53:28;4.85;;;1.90;;
51943;SDS011;37969;53.132;6.370;2022-09-09T15:55:55;19.90;;;3.17;;
51943;SDS011;37969;53.132;6.370;2022-09-09T15:58:21;6.07;;;2.10;;
51943;SDS011;37969;53.132;6.370;2022-09-09T16:00:47;3.70;;;1.90;;